sensor_id;sensor_type;location;lat;lon;timestamp;temperature;humidity
3602;DHT22;1815;50.950;6.920;2022-12-29T00:00:50;12.80;99.90
3602;DHT22;1815;50.950;6.920;2022-12-29T00:03:16;12.80;99.90
3602;DHT22;1815;50.950;6.920;2022-12-29T00:05:41;12.70;99.90
3602;DHT22;1815;50.950;6.920;2022-12-29T00:08:07;12.70;99.90
3602;DHT22;1815;50.950;6.920;2022-12-29T00:10:33;12.70;99.90
3602;DHT22;1815;50.950;6.920;2022-12-29T00:12:58;12.70;99.90
3602;DHT22;1815;50.950;6.920;2022-12-29T00:15:43;12.60;99.90
3602;DHT22;1815;50.950;6.920;2022-12-29T00:18:08;12.70;99.90
3602;DHT22;1815;50.950;6.920;2022-12-29T00:20:37;12.70;99.90
3602;DHT22;1815;50.950;6.920;2022-12-29T00:23:22;12.60;99.90
3602;DHT22;1815;50.950;6.920;2022-12-29T00:26:16;12.70;99.90
3602;DHT22;1815;50.950;6.920;2022-12-29T00:29:01;12.70;99.90
3602;DHT22;1815;50.950;6.920;2022-12-29T00:31:45;12.70;99.90
3602;DHT22;1815;50.950;6.920;2022-12-29T00:34:29;12.70;99.90
3602;DHT22;1815;50.950;6.920;2022-12-29T00:37:14;12.80;99.90
3602;DHT22;1815;50.950;6.920;2022-12-29T00:39:39;12.80;99.90
3602;DHT22;1815;50.950;6.920;2022-12-29T00:42:24;12.80;99.90
3602;DHT22;1815;50.950;6.920;2022-12-29T00:45:08;12.90;99.90
3602;DHT22;1815;50.950;6.920;2022-12-29T00:47:34;12.90;99.90
3602;DHT22;1815;50.950;6.920;2022-12-29T00:50:00;13.00;99.90
3602;DHT22;1815;50.950;6.920;2022-12-29T00:52:26;13.10;99.90
3602;DHT22;1815;50.950;6.920;2022-12-29T00:54:52;13.10;99.90
3602;DHT22;1815;50.950;6.920;2022-12-29T00:57:18;13.10;99.90
3602;DHT22;1815;50.950;6.920;2022-12-29T00:59:44;13.20;99.90
3602;DHT22;1815;50.950;6.920;2022-12-29T01:02:10;13.20;99.90
3602;DHT22;1815;50.950;6.920;2022-12-29T01:04:36;13.20;99.90
3602;DHT22;1815;50.950;6.920;2022-12-29T01:07:03;13.30;99.90
3602;DHT22;1815;50.950;6.920;2022-12-29T01:09:28;13.30;99.90
3602;DHT22;1815;50.950;6.920;2022-12-29T01:12:13;13.40;99.90
3602;DHT22;1815;50.950;6.920;2022-12-29T01:14:39;13.40;99.90
3602;DHT22;1815;50.950;6.920;2022-12-29T01:17:05;13.40;99.90
3602;DHT22;1815;50.950;6.920;2022-12-29T01:19:31;13.50;99.90
3602;DHT22;1815;50.950;6.920;2022-12-29T01:21:57;13.50;99.90
3602;DHT22;1815;50.950;6.920;2022-12-29T01:24:23;13.50;99.90
3602;DHT22;1815;50.950;6.920;2022-12-29T01:26:51;13.50;99.90
3602;DHT22;1815;50.950;6.920;2022-12-29T01:29:17;13.60;99.90
3602;DHT22;1815;50.950;6.920;2022-12-29T01:31:44;13.70;99.90
3602;DHT22;1815;50.950;6.920;2022-12-29T01:34:10;13.70;99.90
3602;DHT22;1815;50.950;6.920;2022-12-29T01:36:37;13.70;99.90
3602;DHT22;1815;50.950;6.920;2022-12-29T01:39:03;13.70;99.90
3602;DHT22;1815;50.950;6.920;2022-12-29T01:41:29;13.80;99.90
3602;DHT22;1815;50.950;6.920;2022-12-29T01:43:57;13.80;99.90
3602;DHT22;1815;50.950;6.920;2022-12-29T01:51:47;13.90;99.90
3602;DHT22;1815;50.950;6.920;2022-12-29T01:54:24;13.90;99.90
3602;DHT22;1815;50.950;6.920;2022-12-29T01:56:55;14.00;99.90
3602;DHT22;1815;50.950;6.920;2022-12-29T01:59:28;14.00;99.90
3602;DHT22;1815;50.950;6.920;2022-12-29T02:01:55;14.00;99.90
3602;DHT22;1815;50.950;6.920;2022-12-29T02:04:40;14.10;99.90
3602;DHT22;1815;50.950;6.920;2022-12-29T02:07:19;14.10;99.90
3602;DHT22;1815;50.950;6.920;2022-12-29T02:09:49;14.10;99.90
3602;DHT22;1815;50.950;6.920;2022-12-29T02:12:17;14.10;99.90
3602;DHT22;1815;50.950;6.920;2022-12-29T02:14:44;14.10;99.90
3602;DHT22;1815;50.950;6.920;2022-12-29T02:42:07;14.20;99.90
3602;DHT22;1815;50.950;6.920;2022-12-29T02:47:30;14.30;99.90
3602;DHT22;1815;50.950;6.920;2022-12-29T02:50:13;14.30;99.90
3602;DHT22;1815;50.950;6.920;2022-12-29T02:52:53;14.30;99.90
3602;DHT22;1815;50.950;6.920;2022-12-29T02:55:20;14.30;99.90
3602;DHT22;1815;50.950;6.920;2022-12-29T02:57:46;14.40;99.90
3602;DHT22;1815;50.950;6.920;2022-12-29T03:00:15;14.40;99.90
3602;DHT22;1815;50.950;6.920;2022-12-29T03:10:59;14.40;99.90
3602;DHT22;1815;50.950;6.920;2022-12-29T03:13:44;14.40;99.90
3602;DHT22;1815;50.950;6.920;2022-12-29T03:19:07;14.40;99.90
3602;DHT22;1815;50.950;6.920;2022-12-29T03:21:39;14.40;99.90
3602;DHT22;1815;50.950;6.920;2022-12-29T03:24:32;14.40;99.90
3602;DHT22;1815;50.950;6.920;2022-12-29T03:27:02;14.40;99.90
3602;DHT22;1815;50.950;6.920;2022-12-29T03:29:39;14.30;99.90
3602;DHT22;1815;50.950;6.920;2022-12-29T03:32:09;14.30;99.90
3602;DHT22;1815;50.950;6.920;2022-12-29T03:34:38;14.30;99.90
3602;DHT22;1815;50.950;6.920;2022-12-29T03:37:13;14.30;99.90
3602;DHT22;1815;50.950;6.920;2022-12-29T03:39:40;14.30;99.90
3602;DHT22;1815;50.950;6.920;2022-12-29T03:42:10;14.30;99.90
3602;DHT22;1815;50.950;6.920;2022-12-29T03:44:38;14.30;99.90
3602;DHT22;1815;50.950;6.920;2022-12-29T03:47:06;14.30;99.90
3602;DHT22;1815;50.950;6.920;2022-12-29T03:49:32;14.40;99.90
3602;DHT22;1815;50.950;6.920;2022-12-29T03:51:58;14.40;99.90
3602;DHT22;1815;50.950;6.920;2022-12-29T03:54:25;14.40;99.90
3602;DHT22;1815;50.950;6.920;2022-12-29T03:56:52;14.40;99.90
3602;DHT22;1815;50.950;6.920;2022-12-29T03:59:27;14.40;99.90
3602;DHT22;1815;50.950;6.920;2022-12-29T04:01:52;14.30;99.90
3602;DHT22;1815;50.950;6.920;2022-12-29T04:04:18;14.30;99.90
3602;DHT22;1815;50.950;6.920;2022-12-29T04:06:44;14.20;99.90
3602;DHT22;1815;50.950;6.920;2022-12-29T04:09:10;14.20;99.90
3602;DHT22;1815;50.950;6.920;2022-12-29T04:11:40;14.20;99.90
3602;DHT22;1815;50.950;6.920;2022-12-29T04:14:06;14.10;99.90
3602;DHT22;1815;50.950;6.920;2022-12-29T04:16:33;14.00;99.90
3602;DHT22;1815;50.950;6.920;2022-12-29T04:19:02;14.00;99.90
3602;DHT22;1815;50.950;6.920;2022-12-29T04:21:28;14.00;99.90
3602;DHT22;1815;50.950;6.920;2022-12-29T04:23:54;13.90;99.90
3602;DHT22;1815;50.950;6.920;2022-12-29T04:26:19;13.90;99.90
3602;DHT22;1815;50.950;6.920;2022-12-29T04:28:53;13.80;99.90
3602;DHT22;1815;50.950;6.920;2022-12-29T04:31:45;13.80;99.90
3602;DHT22;1815;50.950;6.920;2022-12-29T04:34:11;13.70;99.90
3602;DHT22;1815;50.950;6.920;2022-12-29T04:36:37;13.70;99.90
3602;DHT22;1815;50.950;6.920;2022-12-29T04:39:05;13.70;99.90
3602;DHT22;1815;50.950;6.920;2022-12-29T04:41:32;13.70;99.90
3602;DHT22;1815;50.950;6.920;2022-12-29T04:43:58;13.70;99.90
3602;DHT22;1815;50.950;6.920;2022-12-29T04:46:42;13.60;99.90
3602;DHT22;1815;50.950;6.920;2022-12-29T04:49:22;13.70;99.90
3602;DHT22;1815;50.950;6.920;2022-12-29T04:51:53;13.70;99.90
3602;DHT22;1815;50.950;6.920;2022-12-29T04:54:19;13.70;99.90
3602;DHT22;1815;50.950;6.920;2022-12-29T04:56:53;13.80;99.90
3602;DHT22;1815;50.950;6.920;2022-12-29T04:59:19;13.80;99.90
3602;DHT22;1815;50.950;6.920;2022-12-29T05:01:48;13.90;99.90
3602;DHT22;1815;50.950;6.920;2022-12-29T05:04:14;14.00;99.90
3602;DHT22;1815;50.950;6.920;2022-12-29T05:06:41;14.00;99.90
3602;DHT22;1815;50.950;6.920;2022-12-29T05:09:07;14.00;99.90
3602;DHT22;1815;50.950;6.920;2022-12-29T05:11:33;14.00;99.90
3602;DHT22;1815;50.950;6.920;2022-12-29T05:14:00;14.00;99.90
3602;DHT22;1815;50.950;6.920;2022-12-29T05:16:26;14.00;99.90
3602;DHT22;1815;50.950;6.920;2022-12-29T05:18:52;14.00;99.90
3602;DHT22;1815;50.950;6.920;2022-12-29T05:21:19;14.00;99.90
3602;DHT22;1815;50.950;6.920;2022-12-29T05:23:44;14.00;99.90
3602;DHT22;1815;50.950;6.920;2022-12-29T05:26:10;14.00;99.90
3602;DHT22;1815;50.950;6.920;2022-12-29T05:28:47;14.00;99.90
3602;DHT22;1815;50.950;6.920;2022-12-29T05:31:17;14.00;99.90
3602;DHT22;1815;50.950;6.920;2022-12-29T05:33:43;14.00;99.90
3602;DHT22;1815;50.950;6.920;2022-12-29T05:36:09;14.00;99.90
3602;DHT22;1815;50.950;6.920;2022-12-29T05:38:38;14.00;99.90
3602;DHT22;1815;50.950;6.920;2022-12-29T05:41:04;14.00;99.90
3602;DHT22;1815;50.950;6.920;2022-12-29T05:43:50;14.00;99.90
3602;DHT22;1815;50.950;6.920;2022-12-29T05:46:27;14.00;99.90
3602;DHT22;1815;50.950;6.920;2022-12-29T05:49:11;14.00;99.90
3602;DHT22;1815;50.950;6.920;2022-12-29T05:51:51;14.00;99.90
3602;DHT22;1815;50.950;6.920;2022-12-29T05:54:17;14.00;99.90
3602;DHT22;1815;50.950;6.920;2022-12-29T05:56:43;14.00;99.90
3602;DHT22;1815;50.950;6.920;2022-12-29T05:59:09;14.10;99.90
3602;DHT22;1815;50.950;6.920;2022-12-29T06:01:36;14.10;99.90
3602;DHT22;1815;50.950;6.920;2022-12-29T06:04:02;14.10;99.90
3602;DHT22;1815;50.950;6.920;2022-12-29T06:06:27;14.10;99.90
3602;DHT22;1815;50.950;6.920;2022-12-29T06:08:53;14.20;99.90
3602;DHT22;1815;50.950;6.920;2022-12-29T06:11:20;14.20;99.90
3602;DHT22;1815;50.950;6.920;2022-12-29T06:13:52;14.20;99.90
3602;DHT22;1815;50.950;6.920;2022-12-29T06:16:17;14.20;99.90
3602;DHT22;1815;50.950;6.920;2022-12-29T06:18:43;14.20;99.90
3602;DHT22;1815;50.950;6.920;2022-12-29T06:21:09;14.30;99.90
3602;DHT22;1815;50.950;6.920;2022-12-29T06:23:35;14.30;99.90
3602;DHT22;1815;50.950;6.920;2022-12-29T06:26:03;14.30;99.90
3602;DHT22;1815;50.950;6.920;2022-12-29T06:28:28;14.30;99.90
3602;DHT22;1815;50.950;6.920;2022-12-29T06:30:55;14.30;99.90
3602;DHT22;1815;50.950;6.920;2022-12-29T06:33:21;14.40;99.90
3602;DHT22;1815;50.950;6.920;2022-12-29T06:35:46;14.40;99.90
3602;DHT22;1815;50.950;6.920;2022-12-29T06:38:13;14.40;99.90
3602;DHT22;1815;50.950;6.920;2022-12-29T06:40:39;14.40;99.90
3602;DHT22;1815;50.950;6.920;2022-12-29T06:43:28;14.40;99.90
3602;DHT22;1815;50.950;6.920;2022-12-29T06:46:22;14.40;99.90
3602;DHT22;1815;50.950;6.920;2022-12-29T06:48:48;14.40;99.90
3602;DHT22;1815;50.950;6.920;2022-12-29T06:51:14;14.40;99.90
3602;DHT22;1815;50.950;6.920;2022-12-29T06:53:40;14.40;99.90
3602;DHT22;1815;50.950;6.920;2022-12-29T06:56:06;14.40;99.90
3602;DHT22;1815;50.950;6.920;2022-12-29T06:58:31;14.40;99.90
3602;DHT22;1815;50.950;6.920;2022-12-29T07:00:58;14.40;99.90
3602;DHT22;1815;50.950;6.920;2022-12-29T07:03:24;14.40;99.90
3602;DHT22;1815;50.950;6.920;2022-12-29T07:05:49;14.40;99.90
3602;DHT22;1815;50.950;6.920;2022-12-29T07:08:15;14.40;99.90
3602;DHT22;1815;50.950;6.920;2022-12-29T07:10:41;14.40;99.90
3602;DHT22;1815;50.950;6.920;2022-12-29T07:13:06;14.40;99.90
3602;DHT22;1815;50.950;6.920;2022-12-29T07:15:34;14.40;99.90
3602;DHT22;1815;50.950;6.920;2022-12-29T07:17:59;14.40;99.90
3602;DHT22;1815;50.950;6.920;2022-12-29T07:20:25;14.40;99.90
3602;DHT22;1815;50.950;6.920;2022-12-29T07:22:51;14.40;99.90
3602;DHT22;1815;50.950;6.920;2022-12-29T07:25:16;14.40;99.90
3602;DHT22;1815;50.950;6.920;2022-12-29T07:27:42;14.40;99.90
3602;DHT22;1815;50.950;6.920;2022-12-29T07:30:08;14.40;99.90
3602;DHT22;1815;50.950;6.920;2022-12-29T07:32:35;14.40;99.90
3602;DHT22;1815;50.950;6.920;2022-12-29T07:35:01;14.40;99.90
3602;DHT22;1815;50.950;6.920;2022-12-29T07:37:27;14.40;99.90
3602;DHT22;1815;50.950;6.920;2022-12-29T07:39:53;14.40;99.90
3602;DHT22;1815;50.950;6.920;2022-12-29T07:42:18;14.40;99.90
3602;DHT22;1815;50.950;6.920;2022-12-29T07:44:50;14.40;99.90
3602;DHT22;1815;50.950;6.920;2022-12-29T07:47:18;14.30;99.90
3602;DHT22;1815;50.950;6.920;2022-12-29T07:49:44;14.30;99.90
3602;DHT22;1815;50.950;6.920;2022-12-29T07:52:10;14.30;99.90
3602;DHT22;1815;50.950;6.920;2022-12-29T07:54:35;14.30;99.90
3602;DHT22;1815;50.950;6.920;2022-12-29T07:57:01;14.40;99.90
3602;DHT22;1815;50.950;6.920;2022-12-29T07:59:27;14.40;99.90
3602;DHT22;1815;50.950;6.920;2022-12-29T08:01:52;14.40;99.90
3602;DHT22;1815;50.950;6.920;2022-12-29T08:04:19;14.40;99.90
3602;DHT22;1815;50.950;6.920;2022-12-29T08:06:44;14.40;99.90
3602;DHT22;1815;50.950;6.920;2022-12-29T08:09:11;14.40;99.90
3602;DHT22;1815;50.950;6.920;2022-12-29T08:11:36;14.40;99.90
3602;DHT22;1815;50.950;6.920;2022-12-29T08:14:03;14.50;99.90
3602;DHT22;1815;50.950;6.920;2022-12-29T08:16:28;14.50;99.90
3602;DHT22;1815;50.950;6.920;2022-12-29T08:18:54;14.50;99.90
3602;DHT22;1815;50.950;6.920;2022-12-29T08:21:20;14.50;99.90
3602;DHT22;1815;50.950;6.920;2022-12-29T08:23:46;14.50;99.90
3602;DHT22;1815;50.950;6.920;2022-12-29T08:26:12;14.50;99.90
3602;DHT22;1815;50.950;6.920;2022-12-29T08:28:38;14.40;99.90
3602;DHT22;1815;50.950;6.920;2022-12-29T08:31:04;14.40;99.90
3602;DHT22;1815;50.950;6.920;2022-12-29T08:33:30;14.40;99.90
3602;DHT22;1815;50.950;6.920;2022-12-29T08:36:01;14.30;99.90
3602;DHT22;1815;50.950;6.920;2022-12-29T08:38:28;14.30;99.90
3602;DHT22;1815;50.950;6.920;2022-12-29T08:40:55;14.30;99.90
3602;DHT22;1815;50.950;6.920;2022-12-29T08:43:20;14.20;99.90
3602;DHT22;1815;50.950;6.920;2022-12-29T08:45:46;14.20;99.90
3602;DHT22;1815;50.950;6.920;2022-12-29T08:48:12;14.10;99.90
3602;DHT22;1815;50.950;6.920;2022-12-29T08:50:38;14.10;99.90
3602;DHT22;1815;50.950;6.920;2022-12-29T08:53:04;14.00;99.90
3602;DHT22;1815;50.950;6.920;2022-12-29T08:55:29;14.00;99.90
3602;DHT22;1815;50.950;6.920;2022-12-29T08:57:55;14.00;99.90
3602;DHT22;1815;50.950;6.920;2022-12-29T09:00:22;14.00;99.90
3602;DHT22;1815;50.950;6.920;2022-12-29T09:02:51;14.00;99.90
3602;DHT22;1815;50.950;6.920;2022-12-29T09:05:16;14.00;99.90
3602;DHT22;1815;50.950;6.920;2022-12-29T09:07:42;14.00;99.90
3602;DHT22;1815;50.950;6.920;2022-12-29T09:10:08;14.00;99.90
3602;DHT22;1815;50.950;6.920;2022-12-29T09:12:34;14.00;99.90
3602;DHT22;1815;50.950;6.920;2022-12-29T09:15:00;14.00;99.90
3602;DHT22;1815;50.950;6.920;2022-12-29T09:17:26;14.00;99.90
3602;DHT22;1815;50.950;6.920;2022-12-29T09:20:16;14.00;99.90
3602;DHT22;1815;50.950;6.920;2022-12-29T09:22:42;14.00;99.90
3602;DHT22;1815;50.950;6.920;2022-12-29T09:25:09;14.00;99.90
3602;DHT22;1815;50.950;6.920;2022-12-29T09:27:35;14.00;99.90
3602;DHT22;1815;50.950;6.920;2022-12-29T09:30:03;14.10;99.90
3602;DHT22;1815;50.950;6.920;2022-12-29T09:32:29;14.10;99.90
3602;DHT22;1815;50.950;6.920;2022-12-29T09:34:54;14.10;99.90
3602;DHT22;1815;50.950;6.920;2022-12-29T09:37:20;14.20;99.90
3602;DHT22;1815;50.950;6.920;2022-12-29T09:39:46;14.20;99.90
3602;DHT22;1815;50.950;6.920;2022-12-29T09:45:17;14.30;99.90
3602;DHT22;1815;50.950;6.920;2022-12-29T09:47:45;14.40;99.90
3602;DHT22;1815;50.950;6.920;2022-12-29T09:52:58;14.50;99.90
3602;DHT22;1815;50.950;6.920;2022-12-29T09:55:40;14.60;99.90
3602;DHT22;1815;50.950;6.920;2022-12-29T10:00:56;14.70;99.90
3602;DHT22;1815;50.950;6.920;2022-12-29T10:03:28;14.70;99.90
3602;DHT22;1815;50.950;6.920;2022-12-29T10:06:13;14.80;99.90
3602;DHT22;1815;50.950;6.920;2022-12-29T10:22:24;14.90;99.90
3602;DHT22;1815;50.950;6.920;2022-12-29T10:24:55;15.00;99.90
3602;DHT22;1815;50.950;6.920;2022-12-29T10:27:22;15.00;99.90
3602;DHT22;1815;50.950;6.920;2022-12-29T10:29:55;15.10;99.90
3602;DHT22;1815;50.950;6.920;2022-12-29T10:32:32;15.10;99.90
3602;DHT22;1815;50.950;6.920;2022-12-29T10:35:05;15.20;99.90
3602;DHT22;1815;50.950;6.920;2022-12-29T10:40:46;15.20;99.90
3602;DHT22;1815;50.950;6.920;2022-12-29T10:43:29;15.30;99.90
3602;DHT22;1815;50.950;6.920;2022-12-29T10:45:59;15.30;99.90
3602;DHT22;1815;50.950;6.920;2022-12-29T10:48:31;15.40;99.90
3602;DHT22;1815;50.950;6.920;2022-12-29T10:50:59;15.40;99.90
3602;DHT22;1815;50.950;6.920;2022-12-29T10:53:30;15.40;99.90
3602;DHT22;1815;50.950;6.920;2022-12-29T10:56:00;15.40;99.90
3602;DHT22;1815;50.950;6.920;2022-12-29T10:58:28;15.40;99.90
3602;DHT22;1815;50.950;6.920;2022-12-29T11:00:54;15.50;99.90
3602;DHT22;1815;50.950;6.920;2022-12-29T11:06:12;15.50;99.90
3602;DHT22;1815;50.950;6.920;2022-12-29T11:11:37;15.50;99.90
3602;DHT22;1815;50.950;6.920;2022-12-29T11:14:30;15.60;99.90
3602;DHT22;1815;50.950;6.920;2022-12-29T11:17:01;15.50;99.90
3602;DHT22;1815;50.950;6.920;2022-12-29T11:19:33;15.60;99.90
3602;DHT22;1815;50.950;6.920;2022-12-29T11:24:47;15.60;99.90
3602;DHT22;1815;50.950;6.920;2022-12-29T11:27:24;15.60;99.90
3602;DHT22;1815;50.950;6.920;2022-12-29T11:29:54;15.70;99.90
3602;DHT22;1815;50.950;6.920;2022-12-29T11:32:23;15.70;99.90
3602;DHT22;1815;50.950;6.920;2022-12-29T11:34:49;15.70;99.90
3602;DHT22;1815;50.950;6.920;2022-12-29T11:37:18;15.70;99.90
3602;DHT22;1815;50.950;6.920;2022-12-29T11:39:57;15.70;99.90
3602;DHT22;1815;50.950;6.920;2022-12-29T11:42:38;15.70;99.90
3602;DHT22;1815;50.950;6.920;2022-12-29T11:45:22;15.60;99.90
3602;DHT22;1815;50.950;6.920;2022-12-29T11:48:14;15.60;99.90
3602;DHT22;1815;50.950;6.920;2022-12-29T11:50:40;15.70;99.90
3602;DHT22;1815;50.950;6.920;2022-12-29T11:53:24;15.70;99.90
3602;DHT22;1815;50.950;6.920;2022-12-29T11:55:55;15.70;99.90
3602;DHT22;1815;50.950;6.920;2022-12-29T11:58:29;15.70;99.90
3602;DHT22;1815;50.950;6.920;2022-12-29T12:01:02;15.70;99.90
3602;DHT22;1815;50.950;6.920;2022-12-29T12:03:31;15.70;99.90
3602;DHT22;1815;50.950;6.920;2022-12-29T12:06:01;15.70;99.90
3602;DHT22;1815;50.950;6.920;2022-12-29T12:08:46;15.70;99.90
3602;DHT22;1815;50.950;6.920;2022-12-29T12:14:21;15.70;99.90
3602;DHT22;1815;50.950;6.920;2022-12-29T12:17:21;15.80;99.90
3602;DHT22;1815;50.950;6.920;2022-12-29T12:20:00;15.80;99.90
3602;DHT22;1815;50.950;6.920;2022-12-29T12:22:37;15.80;99.90
3602;DHT22;1815;50.950;6.920;2022-12-29T12:27:49;15.70;99.90
3602;DHT22;1815;50.950;6.920;2022-12-29T12:30:25;15.70;99.90
3602;DHT22;1815;50.950;6.920;2022-12-29T12:33:15;15.70;99.90
3602;DHT22;1815;50.950;6.920;2022-12-29T12:35:53;15.60;99.90
3602;DHT22;1815;50.950;6.920;2022-12-29T12:44:04;15.50;99.90
3602;DHT22;1815;50.950;6.920;2022-12-29T12:47:04;15.50;99.90
3602;DHT22;1815;50.950;6.920;2022-12-29T12:57:55;15.50;99.90
3602;DHT22;1815;50.950;6.920;2022-12-29T13:00:28;15.60;99.90
3602;DHT22;1815;50.950;6.920;2022-12-29T13:06:26;15.50;99.90
3602;DHT22;1815;50.950;6.920;2022-12-29T13:22:44;15.50;99.90
3602;DHT22;1815;50.950;6.920;2022-12-29T13:25:38;15.40;99.90
3602;DHT22;1815;50.950;6.920;2022-12-29T13:28:30;15.40;99.90
3602;DHT22;1815;50.950;6.920;2022-12-29T13:31:17;15.30;99.90
3602;DHT22;1815;50.950;6.920;2022-12-29T13:36:37;15.20;99.90
3602;DHT22;1815;50.950;6.920;2022-12-29T13:39:26;15.20;99.90
3602;DHT22;1815;50.950;6.920;2022-12-29T13:41:55;15.10;99.90
3602;DHT22;1815;50.950;6.920;2022-12-29T13:44:24;15.10;99.90
3602;DHT22;1815;50.950;6.920;2022-12-29T13:46:52;15.10;99.90
3602;DHT22;1815;50.950;6.920;2022-12-29T13:49:21;15.00;99.90
3602;DHT22;1815;50.950;6.920;2022-12-29T13:51:49;15.00;99.90
3602;DHT22;1815;50.950;6.920;2022-12-29T13:54:39;14.90;99.90
3602;DHT22;1815;50.950;6.920;2022-12-29T14:00:16;14.80;99.90
3602;DHT22;1815;50.950;6.920;2022-12-29T14:07:46;14.70;99.90
3602;DHT22;1815;50.950;6.920;2022-12-29T14:10:37;14.70;99.90
3602;DHT22;1815;50.950;6.920;2022-12-29T14:15:33;14.60;99.90
3602;DHT22;1815;50.950;6.920;2022-12-29T14:18:05;14.60;99.90
3602;DHT22;1815;50.950;6.920;2022-12-29T14:20:35;14.50;99.90
3602;DHT22;1815;50.950;6.920;2022-12-29T14:25:59;14.50;99.90
3602;DHT22;1815;50.950;6.920;2022-12-29T14:28:26;14.50;99.90
3602;DHT22;1815;50.950;6.920;2022-12-29T14:30:54;14.50;99.90
3602;DHT22;1815;50.950;6.920;2022-12-29T14:33:21;14.50;99.90
3602;DHT22;1815;50.950;6.920;2022-12-29T14:35:48;14.60;99.90
3602;DHT22;1815;50.950;6.920;2022-12-29T14:38:20;14.60;99.90
3602;DHT22;1815;50.950;6.920;2022-12-29T14:40:47;14.60;99.90
3602;DHT22;1815;50.950;6.920;2022-12-29T14:43:24;14.60;99.90
3602;DHT22;1815;50.950;6.920;2022-12-29T14:45:59;14.50;99.90
3602;DHT22;1815;50.950;6.920;2022-12-29T14:48:36;14.50;99.90
3602;DHT22;1815;50.950;6.920;2022-12-29T14:51:17;14.50;99.90
3602;DHT22;1815;50.950;6.920;2022-12-29T14:53:48;14.50;99.90
3602;DHT22;1815;50.950;6.920;2022-12-29T14:56:17;14.40;99.90
3602;DHT22;1815;50.950;6.920;2022-12-29T14:59:01;14.40;99.90
3602;DHT22;1815;50.950;6.920;2022-12-29T15:01:45;14.40;99.90
3602;DHT22;1815;50.950;6.920;2022-12-29T15:04:27;14.30;99.90
3602;DHT22;1815;50.950;6.920;2022-12-29T15:06:55;14.20;99.90
3602;DHT22;1815;50.950;6.920;2022-12-29T15:09:35;14.20;99.90
3602;DHT22;1815;50.950;6.920;2022-12-29T15:15:38;14.00;99.90
3602;DHT22;1815;50.950;6.920;2022-12-29T15:20:52;13.90;99.90
3602;DHT22;1815;50.950;6.920;2022-12-29T15:23:19;13.90;99.90
3602;DHT22;1815;50.950;6.920;2022-12-29T15:25:53;13.80;99.90
3602;DHT22;1815;50.950;6.920;2022-12-29T15:28:20;13.70;99.90
3602;DHT22;1815;50.950;6.920;2022-12-29T15:31:02;13.60;99.90
3602;DHT22;1815;50.950;6.920;2022-12-29T15:33:28;13.50;99.90
3602;DHT22;1815;50.950;6.920;2022-12-29T15:35:56;13.40;99.90
3602;DHT22;1815;50.950;6.920;2022-12-29T15:38:28;13.30;99.90
3602;DHT22;1815;50.950;6.920;2022-12-29T15:41:06;13.20;99.90
3602;DHT22;1815;50.950;6.920;2022-12-29T15:46:01;13.10;99.90
3602;DHT22;1815;50.950;6.920;2022-12-29T15:48:27;13.00;99.90
3602;DHT22;1815;50.950;6.920;2022-12-29T15:50:54;12.90;99.90
3602;DHT22;1815;50.950;6.920;2022-12-29T15:53:26;12.80;99.90
3602;DHT22;1815;50.950;6.920;2022-12-29T15:56:16;12.80;99.90
3602;DHT22;1815;50.950;6.920;2022-12-29T15:58:46;12.70;99.90
3602;DHT22;1815;50.950;6.920;2022-12-29T16:01:34;12.70;99.90
3602;DHT22;1815;50.950;6.920;2022-12-29T16:04:06;12.60;99.90
3602;DHT22;1815;50.950;6.920;2022-12-29T16:06:38;12.50;99.90
3602;DHT22;1815;50.950;6.920;2022-12-29T16:09:15;12.50;99.90
3602;DHT22;1815;50.950;6.920;2022-12-29T16:11:47;12.40;99.90
3602;DHT22;1815;50.950;6.920;2022-12-29T16:14:18;12.40;99.90
3602;DHT22;1815;50.950;6.920;2022-12-29T16:16:46;12.30;99.90
3602;DHT22;1815;50.950;6.920;2022-12-29T16:19:27;12.30;99.90
3602;DHT22;1815;50.950;6.920;2022-12-29T16:21:55;12.20;99.90
3602;DHT22;1815;50.950;6.920;2022-12-29T16:24:26;12.10;99.90
3602;DHT22;1815;50.950;6.920;2022-12-29T16:29:32;12.00;99.90
3602;DHT22;1815;50.950;6.920;2022-12-29T16:31:59;11.90;99.90
3602;DHT22;1815;50.950;6.920;2022-12-29T16:34:33;11.90;99.90
3602;DHT22;1815;50.950;6.920;2022-12-29T16:37:34;11.80;99.90
3602;DHT22;1815;50.950;6.920;2022-12-29T16:42:47;11.70;99.90
3602;DHT22;1815;50.950;6.920;2022-12-29T16:48:06;11.60;99.90
3602;DHT22;1815;50.950;6.920;2022-12-29T16:50:36;11.60;99.90
3602;DHT22;1815;50.950;6.920;2022-12-29T16:53:03;11.60;99.90
3602;DHT22;1815;50.950;6.920;2022-12-29T16:55:31;11.60;99.90
3602;DHT22;1815;50.950;6.920;2022-12-29T16:57:58;11.50;99.90
3602;DHT22;1815;50.950;6.920;2022-12-29T17:00:27;11.50;99.90
3602;DHT22;1815;50.950;6.920;2022-12-29T17:02:58;11.50;99.90
3602;DHT22;1815;50.950;6.920;2022-12-29T17:05:26;11.40;99.90
3602;DHT22;1815;50.950;6.920;2022-12-29T17:07:52;11.40;99.90
3602;DHT22;1815;50.950;6.920;2022-12-29T17:10:18;11.40;99.90
3602;DHT22;1815;50.950;6.920;2022-12-29T17:12:46;11.30;99.90
3602;DHT22;1815;50.950;6.920;2022-12-29T17:15:26;11.30;99.90
3602;DHT22;1815;50.950;6.920;2022-12-29T17:17:54;11.30;99.90
3602;DHT22;1815;50.950;6.920;2022-12-29T17:20:26;11.30;99.90
3602;DHT22;1815;50.950;6.920;2022-12-29T17:22:53;11.20;99.90
3602;DHT22;1815;50.950;6.920;2022-12-29T17:25:26;11.30;99.90
3602;DHT22;1815;50.950;6.920;2022-12-29T17:27:59;11.20;99.90
3602;DHT22;1815;50.950;6.920;2022-12-29T17:30:28;11.20;99.90
3602;DHT22;1815;50.950;6.920;2022-12-29T17:33:03;11.30;99.90
3602;DHT22;1815;50.950;6.920;2022-12-29T17:35:30;11.20;99.90
3602;DHT22;1815;50.950;6.920;2022-12-29T17:37:56;11.30;99.90
3602;DHT22;1815;50.950;6.920;2022-12-29T17:40:27;11.30;99.90
3602;DHT22;1815;50.950;6.920;2022-12-29T17:42:55;11.30;99.90
3602;DHT22;1815;50.950;6.920;2022-12-29T17:45:28;11.30;99.90
3602;DHT22;1815;50.950;6.920;2022-12-29T17:47:54;11.30;99.90
3602;DHT22;1815;50.950;6.920;2022-12-29T17:50:24;11.30;99.90
3602;DHT22;1815;50.950;6.920;2022-12-29T17:52:53;11.30;99.90
3602;DHT22;1815;50.950;6.920;2022-12-29T17:55:20;11.20;99.90
3602;DHT22;1815;50.950;6.920;2022-12-29T17:57:47;11.20;99.90
3602;DHT22;1815;50.950;6.920;2022-12-29T18:00:21;11.20;99.90
3602;DHT22;1815;50.950;6.920;2022-12-29T18:02:47;11.20;99.90
3602;DHT22;1815;50.950;6.920;2022-12-29T18:05:39;11.10;99.90
3602;DHT22;1815;50.950;6.920;2022-12-29T18:08:08;11.10;99.90
3602;DHT22;1815;50.950;6.920;2022-12-29T18:10:34;11.10;99.90
3602;DHT22;1815;50.950;6.920;2022-12-29T18:12:59;11.10;99.90
3602;DHT22;1815;50.950;6.920;2022-12-29T18:15:29;11.10;99.90
3602;DHT22;1815;50.950;6.920;2022-12-29T18:18:10;11.10;99.90
3602;DHT22;1815;50.950;6.920;2022-12-29T18:20:36;11.20;99.90
3602;DHT22;1815;50.950;6.920;2022-12-29T18:23:02;11.20;99.90
3602;DHT22;1815;50.950;6.920;2022-12-29T18:25:57;11.30;99.90
3602;DHT22;1815;50.950;6.920;2022-12-29T18:28:24;11.30;99.90
3602;DHT22;1815;50.950;6.920;2022-12-29T18:30:51;11.40;99.90
3602;DHT22;1815;50.950;6.920;2022-12-29T18:33:19;11.40;99.90
3602;DHT22;1815;50.950;6.920;2022-12-29T18:36:14;11.40;99.90
3602;DHT22;1815;50.950;6.920;2022-12-29T18:38:41;11.40;99.90
3602;DHT22;1815;50.950;6.920;2022-12-29T18:41:28;11.50;99.90
3602;DHT22;1815;50.950;6.920;2022-12-29T18:43:54;11.50;99.90
3602;DHT22;1815;50.950;6.920;2022-12-29T18:46:20;11.50;99.90
3602;DHT22;1815;50.950;6.920;2022-12-29T18:48:46;11.50;99.90
3602;DHT22;1815;50.950;6.920;2022-12-29T18:51:20;11.50;99.90
3602;DHT22;1815;50.950;6.920;2022-12-29T18:53:46;11.40;99.90